createdAt,value
2022-09-25T00:02:25.504Z,63.57
2022-09-25T00:05:27.870Z,65.70
2022-09-25T00:08:30.176Z,59.13
2022-09-25T00:11:33.344Z,54.60
2022-09-25T00:14:35.492Z,57.63
2022-09-25T00:17:37.619Z,52.43
2022-09-25T00:20:39.503Z,48.43
2022-09-25T00:23:44.789Z,48.57
2022-09-25T00:26:46.678Z,41.07
2022-09-25T00:29:48.790Z,41.87
2022-09-25T00:32:50.789Z,43.43
2022-09-25T00:35:53.181Z,42.50
2022-09-25T00:38:55.198Z,45.20
2022-09-25T00:41:57.501Z,45.90
2022-09-25T00:45:01.244Z,41.60
2022-09-25T00:48:07.307Z,50.47
2022-09-25T00:51:09.191Z,50.97
2022-09-25T00:54:17.561Z,41.13
2022-09-25T00:57:23.250Z,41.10
2022-09-25T01:00:25.478Z,40.07
2022-09-25T01:03:28.008Z,36.90
2022-09-25T01:06:31.524Z,40.57
2022-09-25T01:09:33.561Z,42.90
2022-09-25T01:12:39.177Z,41.97
2022-09-25T01:16:08.466Z,46.90
2022-09-25T01:19:19.269Z,47.93
2022-09-25T01:22:58.223Z,51.40
2022-09-25T01:26:54.284Z,48.37
2022-09-25T01:30:15.368Z,50.63
2022-09-25T01:33:49.467Z,48.27
2022-09-25T01:36:57.969Z,51.97
2022-09-25T01:40:21.814Z,42.33
2022-09-25T01:43:48.200Z,44.63
2022-09-25T01:46:53.382Z,52.67
2022-09-25T01:50:01.675Z,52.40
2022-09-25T01:53:11.420Z,52.20
2022-09-25T01:56:33.063Z,57.07
2022-09-25T01:59:57.703Z,58.00
2022-09-25T02:03:11.399Z,51.07
2022-09-25T02:06:17.475Z,48.43
2022-09-25T02:09:29.530Z,50.47
2022-09-25T02:12:43.400Z,51.20
2022-09-25T02:15:57.770Z,49.87
2022-09-25T02:19:19.087Z,54.13
2022-09-25T02:22:35.922Z,57.47
2022-09-25T02:25:43.220Z,63.53
2022-09-25T02:28:45.113Z,63.30
2022-09-25T02:31:59.388Z,63.37
2022-09-25T02:35:01.497Z,61.00
2022-09-25T02:38:04.733Z,58.47
2022-09-25T02:41:15.937Z,65.43
2022-09-25T02:44:21.193Z,76.03
2022-09-25T02:47:49.022Z,75.20
2022-09-25T02:51:18.115Z,69.77
2022-09-25T02:54:33.521Z,67.83
2022-09-25T02:57:43.359Z,72.47
2022-09-25T03:00:50.435Z,77.87
2022-09-25T03:03:56.244Z,65.03
2022-09-25T03:06:58.488Z,59.37
2022-09-25T03:10:00.694Z,57.77
2022-09-25T03:13:33.200Z,56.07
2022-09-25T03:16:51.553Z,62.90
2022-09-25T03:19:53.524Z,62.43
2022-09-25T03:22:55.574Z,59.87
2022-09-25T03:25:57.870Z,58.60
2022-09-25T03:29:02.187Z,58.53
2022-09-25T03:32:04.746Z,55.47
2022-09-25T03:35:07.126Z,47.40
2022-09-25T03:38:10.376Z,47.03
2022-09-25T03:41:14.278Z,43.87
2022-09-25T03:44:16.263Z,42.17
2022-09-25T03:47:18.325Z,37.03
2022-09-25T03:50:20.329Z,46.30
2022-09-25T03:53:25.304Z,42.07
2022-09-25T03:56:28.971Z,40.97
2022-09-25T03:59:31.223Z,38.40
2022-09-25T04:02:33.168Z,35.87
2022-09-25T04:05:35.890Z,41.50
2022-09-25T04:08:38.614Z,34.57
2022-09-25T04:11:40.906Z,33.13
2022-09-25T04:14:46.912Z,33.50
2022-09-25T04:17:49.812Z,36.70
2022-09-25T04:20:52.290Z,34.23
2022-09-25T04:24:12.866Z,35.40
2022-09-25T04:27:16.096Z,38.33
2022-09-25T04:30:18.300Z,38.10
2022-09-25T04:33:39.245Z,37.07
2022-09-25T04:36:41.463Z,36.50
2022-09-25T04:39:43.333Z,40.23
2022-09-25T04:42:45.466Z,35.03
2022-09-25T04:45:47.950Z,36.23
2022-09-25T04:48:54.937Z,38.70
2022-09-25T04:51:57.088Z,37.10
2022-09-25T04:55:00.830Z,44.03
2022-09-25T04:58:05.460Z,41.97
2022-09-25T05:01:09.677Z,41.40
2022-09-25T05:04:13.292Z,42.07
2022-09-25T05:07:15.606Z,36.17
2022-09-25T05:10:17.488Z,41.20
2022-09-25T05:13:20.224Z,44.13
2022-09-25T05:16:22.226Z,36.47
2022-09-25T05:19:24.485Z,36.13
2022-09-25T05:22:26.396Z,33.40
2022-09-25T05:25:28.562Z,34.83
2022-09-25T05:28:31.824Z,35.30
2022-09-25T05:31:33.993Z,33.23
2022-09-25T05:34:36.055Z,34.87
2022-09-25T05:37:38.156Z,35.97
2022-09-25T05:40:40.370Z,31.83
2022-09-25T05:43:46.699Z,32.23
2022-09-25T05:46:48.577Z,32.60
2022-09-25T05:49:50.634Z,34.67
2022-09-25T05:52:56.807Z,33.00
2022-09-25T05:56:01.892Z,33.03
2022-09-25T05:59:04.033Z,33.70
2022-09-25T06:02:06.620Z,33.87
2022-09-25T06:05:09.109Z,37.63
2022-09-25T06:08:11.258Z,35.67
2022-09-25T06:11:13.138Z,37.63
2022-09-25T06:14:16.599Z,37.77
2022-09-25T06:17:18.873Z,37.30
2022-09-25T06:20:22.385Z,39.30
2022-09-25T06:23:24.424Z,41.63
2022-09-25T06:26:26.500Z,42.83
2022-09-25T06:29:28.417Z,42.17
2022-09-25T06:32:30.475Z,46.20
2022-09-25T06:35:32.338Z,46.55
2022-09-25T06:38:34.491Z,45.70
2022-09-25T06:41:36.841Z,48.75
2022-09-25T06:44:39.223Z,53.13
2022-09-25T06:47:41.174Z,56.30
2022-09-25T06:50:55.314Z,50.33
2022-09-25T06:53:57.532Z,55.88
2022-09-25T06:56:59.610Z,54.80
2022-09-25T07:00:01.742Z,48.67
2022-09-25T07:03:22.481Z,49.33
2022-09-25T07:06:27.859Z,48.88
2022-09-25T07:09:29.943Z,53.42
2022-09-25T07:12:33.535Z,61.67
2022-09-25T07:15:35.839Z,55.40
2022-09-25T07:18:37.980Z,58.08
2022-09-25T07:21:40.080Z,54.70
2022-09-25T07:24:41.972Z,53.35
2022-09-25T07:27:44.042Z,54.92
2022-09-25T07:30:48.611Z,55.80
2022-09-25T07:33:50.743Z,53.38
2022-09-25T07:36:54.472Z,55.08
2022-09-25T07:39:56.530Z,56.17
2022-09-25T07:43:00.119Z,50.92
2022-09-25T07:46:02.234Z,51.17
2022-09-25T07:49:04.146Z,49.28
2022-09-25T07:52:06.603Z,57.63
2022-09-25T07:55:09.103Z,63.97
2022-09-25T07:58:12.036Z,55.13
2022-09-25T08:01:14.209Z,50.75
2022-09-25T08:04:16.314Z,53.40
2022-09-25T08:07:18.273Z,44.55
2022-09-25T08:10:21.176Z,40.13
2022-09-25T08:13:23.164Z,35.75
2022-09-25T08:16:25.351Z,30.73
2022-09-25T08:19:28.002Z,33.33
2022-09-25T08:22:30.072Z,30.92
2022-09-25T08:25:32.043Z,34.55
2022-09-25T08:28:34.921Z,37.03
2022-09-25T08:31:36.902Z,32.80
2022-09-25T08:34:41.603Z,30.80
2022-09-25T08:37:46.094Z,33.00
2022-09-25T08:41:15.763Z,32.70
2022-09-25T08:44:26.774Z,32.08
2022-09-25T08:47:47.810Z,33.95
2022-09-25T08:50:51.582Z,32.15
2022-09-25T08:53:53.818Z,31.48
2022-09-25T08:56:59.772Z,24.52
2022-09-25T09:00:12.594Z,22.60
2022-09-25T09:03:17.054Z,27.25
2022-09-25T09:06:20.809Z,22.38
2022-09-25T09:09:29.778Z,22.60
2022-09-25T09:12:35.591Z,24.13
2022-09-25T09:15:43.236Z,22.08
2022-09-25T09:18:45.421Z,30.60
2022-09-25T09:22:09.247Z,23.17
2022-09-25T09:25:29.046Z,19.30
2022-09-25T09:29:07.863Z,20.40
2022-09-25T09:32:15.942Z,16.27
2022-09-25T09:35:46.568Z,24.90
2022-09-25T09:38:55.822Z,19.38
2022-09-25T09:42:09.212Z,14.75
2022-09-25T09:45:44.198Z,14.57
2022-09-25T09:49:11.020Z,13.95
2022-09-25T09:52:21.478Z,14.05
2022-09-25T09:55:28.970Z,14.15
2022-09-25T09:58:43.370Z,14.93
2022-09-25T10:01:54.495Z,13.65
2022-09-25T10:04:59.774Z,16.85
2022-09-25T10:08:01.753Z,12.07
2022-09-25T10:11:11.131Z,13.20
2022-09-25T10:14:21.939Z,11.55
2022-09-25T10:17:25.353Z,15.93
2022-09-25T10:20:51.774Z,10.50
2022-09-25T10:23:56.057Z,10.57
2022-09-25T10:27:31.817Z,9.82
2022-09-25T10:30:34.055Z,10.95
2022-09-25T10:33:36.401Z,11.50
2022-09-25T10:36:44.993Z,10.68
2022-09-25T10:40:08.383Z,9.98
2022-09-25T10:43:23.692Z,11.00
2022-09-25T10:46:55.675Z,10.63
2022-09-25T10:50:17.547Z,10.68
2022-09-25T10:53:38.119Z,10.73
2022-09-25T10:56:40.602Z,10.02
2022-09-25T10:59:50.412Z,11.60
2022-09-25T11:03:00.710Z,10.25
2022-09-25T11:06:06.271Z,11.15
2022-09-25T11:09:21.206Z,11.50
2022-09-25T11:12:26.824Z,12.82
2022-09-25T11:15:31.685Z,12.63
2022-09-25T11:18:51.542Z,11.73
2022-09-25T11:22:01.400Z,11.68
2022-09-25T11:25:30.332Z,11.82
2022-09-25T11:28:54.255Z,12.88
2022-09-25T11:32:15.856Z,10.23
2022-09-25T11:35:39.467Z,11.88
2022-09-25T11:39:08.266Z,11.90
2022-09-25T11:42:19.327Z,22.20
2022-09-25T11:45:47.517Z,11.02
2022-09-25T11:49:02.763Z,11.00
2022-09-25T11:52:19.863Z,9.70
2022-09-25T11:55:27.813Z,9.00
2022-09-25T11:59:01.910Z,10.48
2022-09-25T12:02:26.129Z,9.65
2022-09-25T12:05:35.191Z,8.82
2022-09-25T12:08:57.210Z,9.25
2022-09-25T12:12:17.668Z,9.57
2022-09-25T12:15:42.445Z,10.50
2022-09-25T12:19:03.551Z,9.15
2022-09-25T12:22:11.533Z,8.95
2022-09-25T12:25:45.130Z,9.25
2022-09-25T12:29:19.470Z,8.50
2022-09-25T12:32:54.030Z,9.68
2022-09-25T12:36:03.467Z,10.00
2022-09-25T12:39:31.781Z,9.20
2022-09-25T12:42:56.823Z,9.50
2022-09-25T12:46:10.253Z,7.72
2022-09-25T12:49:35.317Z,8.20
2022-09-25T12:52:59.890Z,7.43
2022-09-25T12:56:24.329Z,6.70
2022-09-25T12:59:46.623Z,7.00
2022-09-25T13:02:54.434Z,8.38
2022-09-25T13:06:08.048Z,6.32
2022-09-25T13:09:30.439Z,7.35
2022-09-25T13:12:38.424Z,7.80
2022-09-25T13:15:42.997Z,7.18
2022-09-25T13:19:11.541Z,7.18
2022-09-25T13:22:20.710Z,7.25
2022-09-25T13:25:23.345Z,8.00
2022-09-25T13:28:31.728Z,6.20
2022-09-25T13:31:37.141Z,7.15
2022-09-25T13:34:41.126Z,5.93
2022-09-25T13:37:43.107Z,7.82
2022-09-25T13:40:50.260Z,7.38
2022-09-25T13:44:31.510Z,6.35
2022-09-25T13:47:50.817Z,5.97
2022-09-25T13:51:18.924Z,6.75
2022-09-25T13:54:21.075Z,8.27
2022-09-25T13:58:02.141Z,5.88
2022-09-25T14:01:18.080Z,6.10
2022-09-25T14:04:27.624Z,5.88
2022-09-25T14:07:29.846Z,5.75
2022-09-25T14:10:32.072Z,8.45
2022-09-25T14:13:34.704Z,5.60
2022-09-25T14:16:48.542Z,5.32
2022-09-25T14:19:54.483Z,9.35
2022-09-25T14:23:00.195Z,10.52
2022-09-25T14:26:06.079Z,7.93
2022-09-25T14:29:16.513Z,9.73
2022-09-25T14:32:55.057Z,9.32
2022-09-25T14:36:22.336Z,22.50
2022-09-25T14:39:38.610Z,11.07
2022-09-25T14:42:56.871Z,7.75
2022-09-25T14:46:03.188Z,7.22
2022-09-25T14:49:24.261Z,30.10
2022-09-25T14:52:32.109Z,9.68
2022-09-25T14:55:38.327Z,7.43
2022-09-25T14:58:53.435Z,5.63
2022-09-25T15:01:55.808Z,9.00
2022-09-25T15:04:59.037Z,6.57
2022-09-25T15:08:02.607Z,7.10
2022-09-25T15:11:11.676Z,6.93
2022-09-25T15:14:19.910Z,20.88
2022-09-25T15:17:23.530Z,22.90
2022-09-25T15:20:28.985Z,8.88
2022-09-25T15:23:34.910Z,6.25
2022-09-25T15:26:44.789Z,7.68
2022-09-25T15:29:48.459Z,7.90
2022-09-25T15:32:58.342Z,6.95
2022-09-25T15:36:16.980Z,7.80
2022-09-25T15:39:26.309Z,12.25
2022-09-25T15:42:28.484Z,7.07
2022-09-25T15:45:42.881Z,9.77
2022-09-25T15:48:55.561Z,10.85
2022-09-25T15:52:01.276Z,8.18
2022-09-25T15:55:11.663Z,8.60
2022-09-25T15:58:16.778Z,9.30
2022-09-25T16:01:41.935Z,23.25
2022-09-25T16:04:50.367Z,16.48
2022-09-25T16:07:52.526Z,7.15
2022-09-25T16:11:17.327Z,13.88
2022-09-25T16:14:31.644Z,7.82
2022-09-25T16:17:40.226Z,12.35
2022-09-25T16:20:42.597Z,7.07
2022-09-25T16:23:55.591Z,9.82
2022-09-25T16:27:04.304Z,9.52
2022-09-25T16:30:07.569Z,12.80
2022-09-25T16:33:26.831Z,8.85
2022-09-25T16:36:41.865Z,11.25
2022-09-25T16:39:44.037Z,18.83
2022-09-25T16:42:47.371Z,13.68
2022-09-25T16:46:00.793Z,19.38
2022-09-25T16:49:04.818Z,12.38
2022-09-25T16:52:08.574Z,18.13
2022-09-25T16:55:27.378Z,12.20
2022-09-25T16:58:29.594Z,12.57
2022-09-25T17:01:31.763Z,10.45
2022-09-25T17:04:35.863Z,21.48
2022-09-25T17:07:37.782Z,20.67
2022-09-25T17:10:40.697Z,28.77
2022-09-25T17:13:42.997Z,28.05
2022-09-25T17:16:45.087Z,34.55
2022-09-25T17:19:47.406Z,21.95
2022-09-25T17:22:50.811Z,20.25
2022-09-25T17:26:19.476Z,15.07
2022-09-25T17:29:22.514Z,16.45
2022-09-25T17:32:24.386Z,18.23
2022-09-25T17:36:05.396Z,18.17
2022-09-25T17:39:07.614Z,20.43
2022-09-25T17:42:11.495Z,23.60
2022-09-25T17:45:39.622Z,21.13
2022-09-25T17:48:42.699Z,24.63
2022-09-25T17:51:44.810Z,31.90
2022-09-25T17:54:47.016Z,25.90
2022-09-25T17:57:49.440Z,24.80
2022-09-25T18:00:54.036Z,23.67
2022-09-25T18:04:01.469Z,22.47
2022-09-25T18:07:04.675Z,27.53
2022-09-25T18:10:07.513Z,24.67
2022-09-25T18:13:14.211Z,26.50
2022-09-25T18:16:28.095Z,20.60
2022-09-25T18:19:49.140Z,22.23
2022-09-25T18:22:51.844Z,32.20
2022-09-25T18:25:54.916Z,44.13
2022-09-25T18:28:56.944Z,34.97
2022-09-25T18:31:59.466Z,29.17
2022-09-25T18:35:02.959Z,27.70
2022-09-25T18:38:05.082Z,29.30
2022-09-25T18:41:07.523Z,35.40
2022-09-25T18:44:09.924Z,32.13
2022-09-25T18:47:11.978Z,37.53
2022-09-25T18:50:19.644Z,37.63
2022-09-25T18:53:22.684Z,40.60
2022-09-25T18:56:24.943Z,48.37
2022-09-25T18:59:26.958Z,43.97
2022-09-25T19:02:31.560Z,38.57
2022-09-25T19:05:33.655Z,36.63
2022-09-25T19:08:38.795Z,28.70
2022-09-25T19:11:40.822Z,30.08
2022-09-25T19:14:47.380Z,38.40
2022-09-25T19:17:49.311Z,51.67
2022-09-25T19:20:56.235Z,43.63
2022-09-25T19:23:58.277Z,47.57
2022-09-25T19:27:00.378Z,41.70
2022-09-25T19:30:02.320Z,39.93
2022-09-25T19:33:04.439Z,44.37
2022-09-25T19:36:13.237Z,36.53
2022-09-25T19:39:15.442Z,36.87
2022-09-25T19:42:17.523Z,40.87
2022-09-25T19:45:21.183Z,44.23
2022-09-25T19:48:25.426Z,35.03
2022-09-25T19:51:27.854Z,39.07
2022-09-25T19:54:29.847Z,31.50
2022-09-25T19:57:31.950Z,31.73
2022-09-25T20:00:36.634Z,34.97
2022-09-25T20:03:39.702Z,35.43
2022-09-25T20:06:41.688Z,39.27
2022-09-25T20:09:44.649Z,37.83
2022-09-25T20:12:46.602Z,37.90
2022-09-25T20:15:48.720Z,34.17
2022-09-25T20:18:57.755Z,35.60
2022-09-25T20:21:59.902Z,48.93
2022-09-25T20:25:01.854Z,34.10
2022-09-25T20:28:05.266Z,35.20
2022-09-25T20:31:09.917Z,31.30
2022-09-25T20:34:15.247Z,31.47
2022-09-25T20:37:17.400Z,33.03
2022-09-25T20:40:19.641Z,33.83
2022-09-25T20:43:21.917Z,30.77
2022-09-25T20:46:25.899Z,32.07
2022-09-25T20:49:27.813Z,32.13
2022-09-25T20:52:33.372Z,34.87
2022-09-25T20:55:38.050Z,34.63
2022-09-25T20:58:41.514Z,30.57
2022-09-25T21:01:43.490Z,30.07
2022-09-25T21:04:46.703Z,30.17
2022-09-25T21:07:48.569Z,29.20
2022-09-25T21:10:50.944Z,24.70
2022-09-25T21:13:55.528Z,28.03
2022-09-25T21:16:57.708Z,32.73
2022-09-25T21:20:00.199Z,30.63
2022-09-25T21:23:02.265Z,28.70
2022-09-25T21:26:10.179Z,29.37
2022-09-25T21:29:14.583Z,29.10
2022-09-25T21:32:16.518Z,24.70
2022-09-25T21:35:18.957Z,26.40
2022-09-25T21:38:20.927Z,27.87
2022-09-25T21:41:25.257Z,29.30
2022-09-25T21:44:27.196Z,26.00
2022-09-25T21:47:31.672Z,27.20
2022-09-25T21:50:33.753Z,27.03
2022-09-25T21:53:35.826Z,25.93
2022-09-25T21:56:37.953Z,27.90
2022-09-25T21:59:41.325Z,24.37
2022-09-25T22:02:43.805Z,24.70
2022-09-25T22:05:48.131Z,23.57
2022-09-25T22:08:55.774Z,23.85
2022-09-25T22:11:57.932Z,23.63
2022-09-25T22:14:59.785Z,31.03
2022-09-25T22:18:01.867Z,25.50
2022-09-25T22:21:04.059Z,27.50
2022-09-25T22:24:07.089Z,28.07
2022-09-25T22:27:09.027Z,27.50
2022-09-25T22:30:11.548Z,31.40
2022-09-25T22:33:13.715Z,34.07
2022-09-25T22:36:15.843Z,34.93
2022-09-25T22:39:19.060Z,36.90
2022-09-25T22:42:23.118Z,37.67
2022-09-25T22:45:24.964Z,37.50
2022-09-25T22:48:27.145Z,36.30
2022-09-25T22:51:29.201Z,41.43
2022-09-25T22:54:31.263Z,40.37
2022-09-25T22:57:38.928Z,39.63
2022-09-25T23:00:47.214Z,41.37
2022-09-25T23:03:49.219Z,42.77
2022-09-25T23:06:52.056Z,38.20
2022-09-25T23:09:53.974Z,37.83
2022-09-25T23:12:56.127Z,37.93
2022-09-25T23:16:03.237Z,42.07
2022-09-25T23:19:05.349Z,38.73
2022-09-25T23:22:07.493Z,35.37
2022-09-25T23:25:09.950Z,34.53
2022-09-25T23:28:12.197Z,32.60
2022-09-25T23:31:16.791Z,34.47
2022-09-25T23:34:19.661Z,32.97
2022-09-25T23:37:21.751Z,33.13
2022-09-25T23:40:23.636Z,30.63
2022-09-25T23:43:25.857Z,32.23
2022-09-25T23:46:30.276Z,30.50
2022-09-25T23:49:32.449Z,33.00
2022-09-25T23:52:34.932Z,30.17
2022-09-25T23:55:42.583Z,33.43
2022-09-25T23:58:44.584Z,34.70
